createdAt,value
2022-11-18T00:01:37.073Z,99892.16
2022-11-18T00:04:04.342Z,99896.41
2022-11-18T00:06:31.392Z,99896.41
2022-11-18T00:09:00.553Z,99896.03
2022-11-18T00:11:46.786Z,99895.41
2022-11-18T00:14:18.844Z,99891.13
2022-11-18T00:16:47.045Z,99897.22
2022-11-18T00:19:14.985Z,99900.03
2022-11-18T00:21:42.477Z,99899.22
2022-11-18T00:24:10.830Z,99900.00
2022-11-18T00:26:37.878Z,99900.63
2022-11-18T00:29:05.044Z,99908.34
2022-11-18T00:31:33.288Z,99905.28
2022-11-18T00:34:00.181Z,99904.09
2022-11-18T00:36:28.479Z,99902.09
2022-11-18T00:38:55.545Z,99902.09
2022-11-18T00:41:22.634Z,99908.97
2022-11-18T00:43:49.865Z,99905.72
2022-11-18T00:46:16.826Z,99919.88
2022-11-18T00:48:45.123Z,99916.69
2022-11-18T00:51:16.116Z,99922.34
2022-11-18T00:53:43.614Z,99917.69
2022-11-18T00:56:11.291Z,99923.56
2022-11-18T00:58:38.586Z,99919.94
2022-11-18T01:01:05.974Z,99927.59
2022-11-18T01:03:33.347Z,99932.44
2022-11-18T01:06:01.623Z,99929.19
2022-11-18T01:08:28.597Z,99931.44
2022-11-18T01:11:15.510Z,99928.81
2022-11-18T01:13:42.427Z,99933.69
2022-11-18T01:16:09.390Z,99935.66
2022-11-18T01:18:36.388Z,99937.31
2022-11-18T01:21:06.320Z,99943.16
2022-11-18T01:23:33.462Z,99949.44
2022-11-18T01:26:05.189Z,99948.22
2022-11-18T01:28:32.732Z,99950.63
2022-11-18T01:31:05.015Z,99954.28
2022-11-18T01:33:32.098Z,99960.38
2022-11-18T01:35:59.080Z,99963.19
2022-11-18T01:38:30.147Z,99965.19
2022-11-18T01:40:57.222Z,99961.56
2022-11-18T01:43:24.585Z,99965.63
2022-11-18T01:45:53.912Z,99963.00
2022-11-18T01:48:26.533Z,99965.44
2022-11-18T01:50:59.117Z,99958.75
2022-11-18T01:53:33.691Z,99964.84
2022-11-18T01:56:06.315Z,99972.94
2022-11-18T01:58:38.986Z,99971.31
2022-11-18T02:01:08.269Z,99973.34
2022-11-18T02:03:35.988Z,99975.97
2022-11-18T02:06:05.368Z,99972.53
2022-11-18T02:08:37.445Z,99973.56
2022-11-18T02:11:04.945Z,99983.47
2022-11-18T02:13:34.687Z,99973.13
2022-11-18T02:16:11.395Z,99975.34
2022-11-18T02:18:55.270Z,99974.50
2022-11-18T02:21:40.983Z,99975.31
2022-11-18T02:24:36.710Z,99984.19
2022-11-18T02:27:55.351Z,99981.69
2022-11-18T02:30:24.135Z,99982.31
2022-11-18T02:32:58.218Z,99991.63
2022-11-18T02:35:31.899Z,99995.28
2022-11-18T02:38:05.339Z,99994.47
2022-11-18T02:40:38.618Z,100002.00
2022-11-18T02:43:13.479Z,100000.34
2022-11-18T02:45:49.383Z,100003.97
2022-11-18T02:48:20.062Z,100002.00
2022-11-18T02:50:51.301Z,100004.41
2022-11-18T02:53:24.059Z,100010.09
2022-11-18T02:55:53.709Z,100016.63
2022-11-18T02:58:23.189Z,100011.34
2022-11-18T03:00:56.394Z,100023.50
2022-11-18T03:03:29.454Z,100023.09
2022-11-18T03:06:10.209Z,100029.56
2022-11-18T03:08:46.071Z,100032.03
2022-11-18T03:11:18.153Z,100023.91
2022-11-18T03:14:07.203Z,100031.38
2022-11-18T03:16:43.970Z,100026.34
2022-11-18T03:19:26.327Z,100032.88
2022-11-18T03:22:08.235Z,100034.50
2022-11-18T03:24:41.300Z,100035.50
2022-11-18T03:27:17.487Z,100031.44
2022-11-18T03:29:52.267Z,100038.66
2022-11-18T03:32:26.785Z,100037.06
2022-11-18T03:35:01.994Z,100036.22
2022-11-18T03:37:32.771Z,100041.25
2022-11-18T03:40:08.954Z,100041.59
2022-11-18T03:42:41.391Z,100041.34
2022-11-18T03:45:16.307Z,100063.44
2022-11-18T03:47:53.994Z,100062.16
2022-11-18T03:50:26.609Z,100058.53
2022-11-18T03:52:55.162Z,100070.31
2022-11-18T03:55:27.852Z,100065.03
2022-11-18T03:58:03.469Z,100073.94
2022-11-18T04:00:39.567Z,100073.56
2022-11-18T04:03:08.439Z,100078.88
2022-11-18T04:05:40.264Z,100079.88
2022-11-18T04:08:14.795Z,100084.06
2022-11-18T04:10:50.770Z,100090.13
2022-11-18T04:13:24.415Z,100097.56
2022-11-18T04:15:54.227Z,100101.91
2022-11-18T04:18:22.665Z,100099.94
2022-11-18T04:20:49.650Z,100112.84
2022-11-18T04:23:16.713Z,100109.59
2022-11-18T04:25:43.799Z,100112.75
2022-11-18T04:28:10.770Z,100111.78
2022-11-18T04:30:37.826Z,100107.50
2022-11-18T04:33:05.148Z,100111.13
2022-11-18T04:35:33.445Z,100117.69
2022-11-18T04:38:00.457Z,100121.19
2022-11-18T04:40:27.446Z,100123.63
2022-11-18T04:42:54.401Z,100113.91
2022-11-18T04:45:21.339Z,100124.63
2022-11-18T04:47:48.262Z,100122.38
2022-11-18T04:50:15.398Z,100124.13
2022-11-18T04:52:43.770Z,100132.38
2022-11-18T04:55:10.746Z,100127.13
2022-11-18T04:57:37.739Z,100130.75
2022-11-18T05:00:06.756Z,100137.94
2022-11-18T05:02:33.730Z,100140.75
2022-11-18T05:05:00.658Z,100148.63
2022-11-18T05:07:27.632Z,100151.25
2022-11-18T05:09:55.952Z,100149.25
2022-11-18T05:12:41.518Z,100154.50
2022-11-18T05:15:09.168Z,100156.16
2022-11-18T05:17:36.193Z,100150.91
2022-11-18T05:20:03.716Z,100160.03
2022-11-18T05:22:30.820Z,100156.22
2022-11-18T05:24:59.144Z,100160.03
2022-11-18T05:27:26.198Z,100167.72
2022-11-18T05:29:53.187Z,100163.13
2022-11-18T05:32:20.122Z,100163.03
2022-11-18T05:34:47.130Z,100160.88
2022-11-18T05:37:14.246Z,100161.63
2022-11-18T05:39:41.285Z,100173.31
2022-11-18T05:42:30.503Z,100174.84
2022-11-18T05:44:58.787Z,100181.34
2022-11-18T05:47:26.987Z,100189.50
2022-11-18T05:49:53.953Z,100191.78
2022-11-18T05:52:20.930Z,100190.69
2022-11-18T05:54:50.696Z,100190.59
2022-11-18T05:57:19.031Z,100191.59
2022-11-18T05:59:45.976Z,100192.75
2022-11-18T06:02:19.640Z,100190.13
2022-11-18T06:04:52.830Z,100196.56
2022-11-18T06:07:25.161Z,100190.13
2022-11-18T06:10:03.699Z,100199.56
2022-11-18T06:12:39.658Z,100200.94
2022-11-18T06:15:14.799Z,100207.19
2022-11-18T06:17:47.636Z,100207.44
2022-11-18T06:20:17.447Z,100208.25
2022-11-18T06:22:46.653Z,100214.81
2022-11-18T06:25:14.948Z,100221.50
2022-11-18T06:27:44.112Z,100227.41
2022-11-18T06:30:12.809Z,100224.56
2022-11-18T06:32:40.026Z,100226.66
2022-11-18T06:35:08.508Z,100225.03
2022-11-18T06:37:35.488Z,100231.47
2022-11-18T06:40:03.611Z,100230.81
2022-11-18T06:42:49.492Z,100241.97
2022-11-18T06:45:20.443Z,100238.91
2022-11-18T06:47:47.522Z,100247.53
2022-11-18T06:50:14.694Z,100251.50
2022-11-18T06:52:41.657Z,100255.47
2022-11-18T06:55:09.469Z,100265.63
2022-11-18T06:57:36.463Z,100260.38
2022-11-18T07:00:05.064Z,100270.25
2022-11-18T07:02:36.901Z,100276.84
2022-11-18T07:05:06.276Z,100281.47
2022-11-18T07:07:41.494Z,100284.94
2022-11-18T07:10:09.951Z,100291.63
2022-11-18T07:12:36.917Z,100305.34
2022-11-18T07:15:04.611Z,100309.78
2022-11-18T07:17:33.032Z,100310.75
2022-11-18T07:19:59.973Z,100312.13
2022-11-18T07:22:26.988Z,100320.19
2022-11-18T07:24:53.921Z,100320.53
2022-11-18T07:27:22.055Z,100318.47
2022-11-18T07:29:49.000Z,100324.53
2022-11-18T07:32:15.963Z,100330.44
2022-11-18T07:34:45.739Z,100330.13
2022-11-18T07:37:12.709Z,100334.47
2022-11-18T07:39:39.695Z,100343.69
2022-11-18T07:42:06.636Z,100347.31
2022-11-18T07:44:33.735Z,100347.31
2022-11-18T07:47:00.963Z,100349.47
2022-11-18T07:49:28.403Z,100356.91
2022-11-18T07:51:57.180Z,100353.66
2022-11-18T07:54:24.202Z,100359.25
2022-11-18T07:56:51.164Z,100365.31
2022-11-18T07:59:18.406Z,100360.88
2022-11-18T08:01:45.570Z,100377.72
2022-11-18T08:04:13.249Z,100372.59
2022-11-18T08:06:40.691Z,100378.84
2022-11-18T08:09:11.317Z,100383.09
2022-11-18T08:11:38.439Z,100380.84
2022-11-18T08:14:05.598Z,100386.91
2022-11-18T08:16:32.616Z,100388.34
2022-11-18T08:19:00.727Z,100389.00
2022-11-18T08:21:28.360Z,100394.94
2022-11-18T08:23:57.645Z,100399.03
2022-11-18T08:26:27.101Z,100395.97
2022-11-18T08:28:55.723Z,100403.47
2022-11-18T08:31:26.187Z,100399.88
2022-11-18T08:33:56.368Z,100404.78
2022-11-18T08:36:27.382Z,100408.72
2022-11-18T08:38:56.511Z,100410.72
2022-11-18T08:41:32.718Z,100413.41
2022-11-18T08:44:00.230Z,100409.50
2022-11-18T08:46:28.463Z,100419.66
2022-11-18T08:48:55.461Z,100413.41
2022-11-18T08:51:23.011Z,100429.66
2022-11-18T08:53:50.150Z,100423.44
2022-11-18T08:56:24.236Z,100420.63
2022-11-18T08:58:53.570Z,100429.00
2022-11-18T09:01:20.819Z,100437.06
2022-11-18T09:03:51.869Z,100433.50
2022-11-18T09:06:22.780Z,100442.66
2022-11-18T09:08:49.879Z,100445.28
2022-11-18T09:11:19.633Z,100447.91
2022-11-18T09:16:41.499Z,100448.53
2022-11-18T09:22:17.605Z,100452.28
2022-11-18T09:24:45.417Z,100466.06
2022-11-18T09:27:17.000Z,100460.63
2022-11-18T09:29:46.065Z,100460.31
2022-11-18T09:32:13.337Z,100467.56
2022-11-18T09:34:40.335Z,100472.00
2022-11-18T09:37:07.711Z,100474.81
2022-11-18T09:39:36.374Z,100478.28
2022-11-18T09:42:24.397Z,100481.94
2022-11-18T09:45:13.489Z,100492.59
2022-11-18T09:47:42.935Z,100496.88
2022-11-18T09:50:47.825Z,100494.91
2022-11-18T09:53:16.067Z,100494.59
2022-11-18T09:55:43.474Z,100506.25
2022-11-18T09:58:21.193Z,100503.81
2022-11-18T10:00:49.896Z,100506.31
2022-11-18T10:03:29.425Z,100515.69
2022-11-18T10:06:03.610Z,100519.97
2022-11-18T10:08:39.599Z,100523.56
2022-11-18T10:11:15.100Z,100530.59
2022-11-18T10:14:01.155Z,100533.75
2022-11-18T10:16:47.122Z,100537.38
2022-11-18T10:19:29.141Z,100547.53
2022-11-18T10:22:19.656Z,100532.06
2022-11-18T10:24:53.503Z,100543.59
2022-11-18T10:27:21.761Z,100545.22
2022-11-18T10:29:55.516Z,100552.09
2022-11-18T10:32:24.249Z,100555.69
2022-11-18T10:34:55.390Z,100554.91
2022-11-18T10:37:45.437Z,100562.47
2022-11-18T10:40:26.309Z,100564.28
2022-11-18T10:42:53.678Z,100566.44
2022-11-18T10:45:27.999Z,100570.53
2022-11-18T10:48:16.319Z,100571.31
2022-11-18T10:50:50.456Z,100571.13
2022-11-18T10:53:32.831Z,100575.41
2022-11-18T10:56:03.149Z,100573.25
2022-11-18T10:58:34.298Z,100578.50
2022-11-18T11:01:19.698Z,100582.91
2022-11-18T11:04:02.288Z,100578.63
2022-11-18T11:06:35.280Z,100575.66
2022-11-18T11:09:07.459Z,100572.97
2022-11-18T11:11:39.792Z,100580.81
2022-11-18T11:14:23.390Z,100578.84
2022-11-18T11:17:12.370Z,100578.72
2022-11-18T11:19:56.807Z,100579.03
2022-11-18T11:22:23.997Z,100584.16
2022-11-18T11:24:51.110Z,100588.06
2022-11-18T11:30:46.703Z,100588.69
2022-11-18T11:33:33.098Z,100596.91
2022-11-18T11:36:32.776Z,100591.66
2022-11-18T11:39:26.571Z,100598.91
2022-11-18T11:42:05.960Z,100595.31
2022-11-18T11:44:51.109Z,100605.50
2022-11-18T11:47:49.257Z,100610.09
2022-11-18T11:50:27.654Z,100610.22
2022-11-18T11:53:17.235Z,100605.59
2022-11-18T11:56:02.812Z,100614.25
2022-11-18T11:59:06.206Z,100613.22
2022-11-18T12:01:45.189Z,100610.69
2022-11-18T12:04:34.432Z,100614.44
2022-11-18T12:07:05.914Z,100625.25
2022-11-18T12:09:52.522Z,100620.97
2022-11-18T12:12:34.287Z,100627.91
2022-11-18T12:15:19.218Z,100625.16
2022-11-18T12:18:00.033Z,100628.44
2022-11-18T12:20:43.556Z,100614.66
2022-11-18T12:23:17.884Z,100627.94
2022-11-18T12:25:59.588Z,100623.19
2022-11-18T12:28:35.579Z,100626.94
2022-11-18T12:31:33.964Z,100632.72
2022-11-18T12:34:32.772Z,100632.56
2022-11-18T12:37:44.487Z,100642.81
2022-11-18T12:40:44.810Z,100656.28
2022-11-18T12:44:06.637Z,100654.00
2022-11-18T12:46:50.236Z,100655.66
2022-11-18T12:50:09.971Z,100653.72
2022-11-18T12:52:53.015Z,100655.09
2022-11-18T12:55:33.449Z,100659.06
2022-11-18T12:58:01.679Z,100661.50
2022-11-18T13:00:52.125Z,100666.59
2022-11-18T13:03:29.004Z,100671.84
2022-11-18T13:06:14.894Z,100673.66
2022-11-18T13:08:42.685Z,100672.81
2022-11-18T13:11:37.097Z,100665.59
2022-11-18T13:14:25.820Z,100681.53
2022-11-18T13:17:13.285Z,100683.00
2022-11-18T13:19:40.621Z,100688.59
2022-11-18T13:22:37.125Z,100684.66
2022-11-18T13:25:04.754Z,100692.53
2022-11-18T13:27:47.580Z,100694.16
2022-11-18T13:30:17.278Z,100688.56
2022-11-18T13:32:48.346Z,100689.53
2022-11-18T13:35:19.936Z,100693.84
2022-11-18T13:37:53.270Z,100691.84
2022-11-18T13:40:25.160Z,100701.38
2022-11-18T13:42:53.236Z,100706.63
2022-11-18T13:45:26.107Z,100704.38
2022-11-18T13:48:01.416Z,100701.75
2022-11-18T13:50:35.495Z,100703.03
2022-11-18T13:53:23.136Z,100715.50
2022-11-18T13:55:55.280Z,100715.16
2022-11-18T13:59:02.500Z,100716.81
2022-11-18T14:01:30.102Z,100709.94
2022-11-18T14:04:03.820Z,100710.28
2022-11-18T14:06:34.680Z,100709.13
2022-11-18T14:09:21.229Z,100718.81
2022-11-18T14:12:01.781Z,100716.53
2022-11-18T14:14:32.725Z,100722.06
2022-11-18T14:17:17.661Z,100737.53
2022-11-18T14:19:47.253Z,100736.69
2022-11-18T14:22:19.587Z,100736.69
2022-11-18T14:24:56.892Z,100737.19
2022-11-18T14:27:40.064Z,100745.22
2022-11-18T14:30:32.734Z,100750.63
2022-11-18T14:33:12.621Z,100748.34
2022-11-18T14:35:44.309Z,100757.34
2022-11-18T14:41:10.618Z,100766.03
2022-11-18T14:43:38.288Z,100772.28
2022-11-18T14:46:14.465Z,100771.63
2022-11-18T14:48:42.555Z,100781.13
2022-11-18T14:51:15.293Z,100776.19
2022-11-18T14:53:43.768Z,100786.34
2022-11-18T14:56:18.169Z,100789.66
2022-11-18T14:58:45.166Z,100794.38
2022-11-18T15:01:13.264Z,100801.06
2022-11-18T15:03:40.500Z,100801.72
2022-11-18T15:06:17.453Z,100806.44
2022-11-18T15:08:47.679Z,100814.63
2022-11-18T15:11:14.921Z,100808.75
2022-11-18T15:13:42.681Z,100804.50
2022-11-18T15:16:16.231Z,100811.91
2022-11-18T15:18:44.927Z,100818.47
2022-11-18T15:21:12.034Z,100815.19
2022-11-18T15:23:40.555Z,100821.56
2022-11-18T15:26:19.370Z,100819.25
2022-11-18T15:28:50.020Z,100829.22
2022-11-18T15:31:18.544Z,100825.78
2022-11-18T15:33:46.457Z,100832.84
2022-11-18T15:36:16.179Z,100827.91
2022-11-18T15:38:45.384Z,100832.41
2022-11-18T15:41:17.489Z,100839.59
2022-11-18T15:43:44.663Z,100848.78
2022-11-18T15:46:11.684Z,100850.41
2022-11-18T15:48:38.661Z,100847.47
2022-11-18T15:51:11.465Z,100845.59
2022-11-18T15:53:39.716Z,100857.09
2022-11-18T15:56:28.079Z,100858.72
2022-11-18T15:58:57.116Z,100861.34
2022-11-18T16:01:26.035Z,100863.66
2022-11-18T16:03:54.226Z,100863.34
2022-11-18T16:06:21.919Z,100872.50
2022-11-18T16:08:50.376Z,100871.69
2022-11-18T16:11:40.535Z,100874.47
2022-11-18T16:14:09.749Z,100876.72
2022-11-18T16:16:39.055Z,100877.72
2022-11-18T16:19:08.996Z,100887.22
2022-11-18T16:21:39.872Z,100885.28
2022-11-18T16:24:12.416Z,100891.53
2022-11-18T16:26:41.296Z,100895.31
2022-11-18T16:29:15.083Z,100884.81
2022-11-18T16:31:44.820Z,100895.97
2022-11-18T16:34:14.164Z,100896.44
2022-11-18T16:36:44.236Z,100905.63
2022-11-18T16:39:24.017Z,100902.47
2022-11-18T16:41:53.974Z,100898.03
2022-11-18T16:44:35.844Z,100912.41
2022-11-18T16:47:07.695Z,100921.28
2022-11-18T16:49:37.716Z,100935.31
2022-11-18T16:52:08.045Z,100933.47
2022-11-18T16:54:38.259Z,100937.22
2022-11-18T16:57:09.666Z,100937.91
2022-11-18T16:59:36.789Z,100933.16
2022-11-18T17:02:04.153Z,100933.69
2022-11-18T17:04:31.554Z,100932.84
2022-11-18T17:07:02.156Z,100945.31
2022-11-18T17:09:30.092Z,100936.53
2022-11-18T17:12:04.485Z,100952.28
2022-11-18T17:14:58.354Z,100960.13
2022-11-18T17:17:25.406Z,100960.88
2022-11-18T17:19:52.455Z,100964.44
2022-11-18T17:22:26.973Z,100971.81
2022-11-18T17:24:53.986Z,100967.41
2022-11-18T17:27:20.953Z,100979.53
2022-11-18T17:29:50.666Z,100975.78
2022-11-18T17:32:18.961Z,100983.06
2022-11-18T17:34:46.984Z,100970.81
2022-11-18T17:37:14.022Z,100974.09
2022-11-18T17:39:40.970Z,100973.16
2022-11-18T17:42:13.919Z,100982.34
2022-11-18T17:44:40.941Z,100982.63
2022-11-18T17:47:07.940Z,100990.00
2022-11-18T17:49:36.277Z,100995.09
2022-11-18T17:52:03.291Z,100999.72
2022-11-18T17:54:30.247Z,101012.09
2022-11-18T17:56:57.353Z,101010.91
2022-11-18T17:59:24.505Z,101022.88
2022-11-18T18:01:57.568Z,101011.84
2022-11-18T18:04:26.321Z,101024.31
2022-11-18T18:06:55.180Z,101031.66
2022-11-18T18:09:30.515Z,101031.50
2022-11-18T18:11:59.462Z,101026.56
2022-11-18T18:14:26.815Z,101028.22
2022-11-18T18:16:54.049Z,101031.50
2022-11-18T18:19:23.149Z,101038.72
2022-11-18T18:21:50.731Z,101042.53
2022-11-18T18:24:20.825Z,101042.44
2022-11-18T18:26:48.844Z,101047.38
2022-11-18T18:29:16.081Z,101046.06
2022-11-18T18:31:48.899Z,101044.69
2022-11-18T18:34:19.828Z,101046.63
2022-11-18T18:36:46.824Z,101059.06
2022-11-18T18:39:13.830Z,101064.31
2022-11-18T18:41:42.180Z,101055.41
2022-11-18T18:44:16.888Z,101059.00
2022-11-18T18:46:45.472Z,101066.56
2022-11-18T18:49:15.741Z,101067.69
2022-11-18T18:51:44.910Z,101075.09
2022-11-18T18:54:15.493Z,101071.69
2022-11-18T18:56:44.399Z,101073.47
2022-11-18T18:59:11.883Z,101074.97
2022-11-18T19:01:39.720Z,101077.97
2022-11-18T19:04:11.173Z,101082.75
2022-11-18T19:09:26.922Z,101086.63
2022-11-18T19:12:14.333Z,101087.25
2022-11-18T19:14:41.790Z,101083.94
2022-11-18T19:17:11.707Z,101088.19
2022-11-18T19:20:00.291Z,101087.53
2022-11-18T19:22:30.551Z,101097.78
2022-11-18T19:24:58.449Z,101085.66
2022-11-18T19:27:27.956Z,101102.09
2022-11-18T19:29:55.091Z,101109.13
2022-11-18T19:32:22.245Z,101112.69
2022-11-18T19:34:49.290Z,101109.56
2022-11-18T19:37:16.303Z,101110.00
2022-11-18T19:39:43.328Z,101111.94
2022-11-18T19:42:10.911Z,101111.19
2022-11-18T19:44:39.603Z,101115.06
2022-11-18T19:47:06.698Z,101122.69
2022-11-18T19:49:33.706Z,101128.91
2022-11-18T19:52:00.621Z,101119.53
2022-11-18T19:54:27.625Z,101122.28
2022-11-18T19:56:54.835Z,101137.78
2022-11-18T19:59:21.943Z,101141.38
2022-11-18T20:01:50.386Z,101139.22
2022-11-18T20:04:17.487Z,101145.72
2022-11-18T20:06:45.520Z,101143.75
2022-11-18T20:09:13.258Z,101145.28
2022-11-18T20:11:40.460Z,101141.38
2022-11-18T20:14:08.253Z,101149.41
2022-11-18T20:16:37.451Z,101149.41
2022-11-18T20:19:10.688Z,101160.16
2022-11-18T20:21:38.920Z,101146.97
2022-11-18T20:24:08.014Z,101157.03
2022-11-18T20:26:38.464Z,101159.66
2022-11-18T20:29:06.530Z,101166.00
2022-11-18T20:31:34.020Z,101166.03
2022-11-18T20:34:02.293Z,101164.69
2022-11-18T20:36:32.965Z,101157.78
2022-11-18T20:39:02.647Z,101164.69
2022-11-18T20:41:31.066Z,101163.00
2022-11-18T20:43:58.653Z,101164.13
2022-11-18T20:46:26.212Z,101171.03
2022-11-18T20:48:53.731Z,101165.78
2022-11-18T20:51:23.492Z,101163.00
2022-11-18T20:53:54.685Z,101170.88
2022-11-18T20:56:24.250Z,101178.44
2022-11-18T20:58:51.437Z,101183.41
2022-11-18T21:01:21.624Z,101181.47
2022-11-18T21:03:54.917Z,101190.81
2022-11-18T21:06:28.624Z,101193.56
2022-11-18T21:08:59.593Z,101197.97
2022-11-18T21:11:27.744Z,101196.50
2022-11-18T21:14:17.126Z,101194.41
2022-11-18T21:16:47.898Z,101188.78
2022-11-18T21:19:15.365Z,101200.78
2022-11-18T21:21:45.059Z,101202.72
2022-11-18T21:24:15.393Z,101206.28
2022-11-18T21:26:43.304Z,101209.03
2022-11-18T21:29:13.157Z,101211.50
2022-11-18T21:31:41.323Z,101215.13
2022-11-18T21:34:10.027Z,101217.56
2022-11-18T21:36:42.996Z,101210.97
2022-11-18T21:39:14.820Z,101225.28
2022-11-18T21:41:42.349Z,101224.03
2022-11-18T21:44:11.805Z,101222.94
2022-11-18T21:46:41.284Z,101225.56
2022-11-18T21:49:08.890Z,101224.72
2022-11-18T21:51:36.441Z,101223.06
2022-11-18T21:54:04.211Z,101231.06
2022-11-18T21:56:32.891Z,101230.22
2022-11-18T21:59:02.185Z,101223.22
2022-11-18T22:01:32.279Z,101233.53
2022-11-18T22:04:02.218Z,101234.50
2022-11-18T22:06:31.466Z,101241.53
2022-11-18T22:08:58.877Z,101241.00
2022-11-18T22:11:25.919Z,101237.25
2022-11-18T22:13:54.249Z,101246.75
2022-11-18T22:16:24.153Z,101250.34
2022-11-18T22:18:59.196Z,101252.94
2022-11-18T22:21:29.815Z,101255.56
2022-11-18T22:23:59.342Z,101251.56
2022-11-18T22:26:26.678Z,101259.69
2022-11-18T22:28:57.481Z,101251.28
2022-11-18T22:31:27.824Z,101264.09
2022-11-18T22:33:56.176Z,101257.19
2022-11-18T22:36:26.270Z,101268.63
2022-11-18T22:38:54.024Z,101274.16
2022-11-18T22:41:42.345Z,101268.25
2022-11-18T22:44:13.762Z,101271.25
2022-11-18T22:46:42.870Z,101271.25
2022-11-18T22:49:11.997Z,101270.47
2022-11-18T22:51:40.102Z,101278.72
2022-11-18T22:56:55.687Z,101277.06
2022-11-18T22:59:24.806Z,101287.38
2022-11-18T23:01:53.019Z,101294.44
2022-11-18T23:04:20.050Z,101294.13
2022-11-18T23:06:48.288Z,101295.91
2022-11-18T23:09:15.752Z,101294.97
2022-11-18T23:12:01.435Z,101294.69
2022-11-18T23:14:29.763Z,101297.72
2022-11-18T23:16:56.821Z,101301.44
2022-11-18T23:19:23.783Z,101301.44
2022-11-18T23:21:50.817Z,101303.25
2022-11-18T23:24:19.389Z,101297.44
2022-11-18T23:26:47.003Z,101311.50
2022-11-18T23:29:15.743Z,101307.91
2022-11-18T23:31:45.178Z,101309.84
2022-11-18T23:34:15.537Z,101313.97
2022-11-18T23:36:43.544Z,101315.63
2022-11-18T23:39:11.346Z,101322.66
2022-11-18T23:41:38.931Z,101318.66
2022-11-18T23:44:06.678Z,101320.72
2022-11-18T23:46:34.429Z,101326.63
2022-11-18T23:49:02.751Z,101328.56
2022-11-18T23:51:29.762Z,101322.50
2022-11-18T23:53:57.727Z,101324.84
2022-11-18T23:56:26.921Z,101326.53
2022-11-18T23:58:56.507Z,101325.53
